createdAt,value
2023-01-02T00:02:07.327Z,59.08
2023-01-02T00:04:34.626Z,58.42
2023-01-02T00:07:01.975Z,56.95
2023-01-02T00:09:35.665Z,58.75
2023-01-02T00:15:05.536Z,58.20
2023-01-02T00:17:33.523Z,61.33
2023-01-02T00:23:11.901Z,60.67
2023-01-02T00:25:39.205Z,60.78
2023-01-02T00:28:06.512Z,61.42
2023-01-02T00:30:38.792Z,61.05
2023-01-02T00:33:07.214Z,62.83
2023-01-02T00:36:31.727Z,61.08
2023-01-02T00:38:59.025Z,59.47
2023-01-02T00:41:30.728Z,61.40
2023-01-02T00:43:58.030Z,64.45
2023-01-02T00:46:25.298Z,63.72
2023-01-02T00:48:52.818Z,62.22
2023-01-02T00:51:20.291Z,61.80
2023-01-02T00:53:50.967Z,64.20
2023-01-02T00:56:18.444Z,63.78
2023-01-02T00:58:47.343Z,60.40
2023-01-02T01:01:14.867Z,63.33
2023-01-02T01:03:43.450Z,64.65
2023-01-02T01:06:11.188Z,65.35
2023-01-02T01:08:41.929Z,64.00
2023-01-02T01:11:13.378Z,63.75
2023-01-02T01:14:05.650Z,66.07
2023-01-02T01:16:35.051Z,66.20
2023-01-02T01:19:02.354Z,66.80
2023-01-02T01:21:29.660Z,64.95
2023-01-02T01:23:59.197Z,65.25
2023-01-02T01:26:26.665Z,59.85
2023-01-02T01:28:55.198Z,58.75
2023-01-02T01:31:23.608Z,57.13
2023-01-02T01:33:51.025Z,59.17
2023-01-02T01:36:21.269Z,56.47
2023-01-02T01:38:48.983Z,57.25
2023-01-02T01:41:34.640Z,54.88
2023-01-02T01:44:03.195Z,53.08
2023-01-02T01:47:10.570Z,55.03
2023-01-02T01:49:38.181Z,55.42
2023-01-02T01:52:11.876Z,53.45
2023-01-02T01:54:49.075Z,55.30
2023-01-02T01:57:24.178Z,55.38
2023-01-02T01:59:52.309Z,54.83
2023-01-02T02:03:02.036Z,52.95
2023-01-02T02:08:24.323Z,54.88
2023-01-02T02:10:54.675Z,52.58
2023-01-02T02:13:22.177Z,51.80
2023-01-02T02:16:16.791Z,52.25
2023-01-02T02:19:18.256Z,51.35
2023-01-02T02:22:12.592Z,52.33
2023-01-02T02:24:58.875Z,52.60
2023-01-02T02:27:50.935Z,53.50
2023-01-02T02:30:33.384Z,53.55
2023-01-02T02:33:25.586Z,61.08
2023-01-02T02:36:08.371Z,66.05
2023-01-02T02:39:05.418Z,66.03
2023-01-02T02:42:11.567Z,66.25
2023-01-02T02:45:10.996Z,67.05
2023-01-02T02:48:04.817Z,67.55
2023-01-02T02:50:44.612Z,66.40
2023-01-02T02:53:26.571Z,68.63
2023-01-02T02:56:06.818Z,69.03
2023-01-02T02:58:35.412Z,67.18
2023-01-02T03:01:06.816Z,67.88
2023-01-02T03:03:34.853Z,70.40
2023-01-02T03:06:18.168Z,70.45
2023-01-02T03:08:45.385Z,62.88
2023-01-02T03:11:13.914Z,61.30
2023-01-02T03:14:06.624Z,61.47
2023-01-02T03:16:40.436Z,59.83
2023-01-02T03:19:13.322Z,59.70
2023-01-02T03:21:50.139Z,59.78
2023-01-02T03:24:21.336Z,59.67
2023-01-02T03:26:53.801Z,59.67
2023-01-02T03:29:44.639Z,61.72
2023-01-02T03:32:27.175Z,58.72
2023-01-02T03:34:55.049Z,60.80
2023-01-02T03:37:26.978Z,59.03
2023-01-02T03:40:40.537Z,61.97
2023-01-02T03:43:17.465Z,59.65
2023-01-02T03:46:10.762Z,63.50
2023-01-02T03:52:01.461Z,59.63
2023-01-02T03:54:29.854Z,65.60
2023-01-02T03:57:19.926Z,62.50
2023-01-02T03:59:59.133Z,65.57
2023-01-02T04:03:03.762Z,63.05
2023-01-02T04:08:20.414Z,67.03
2023-01-02T04:10:54.561Z,63.78
2023-01-02T04:13:39.413Z,62.75
2023-01-02T04:16:12.570Z,64.55
2023-01-02T04:18:47.124Z,66.38
2023-01-02T04:21:19.565Z,65.85
2023-01-02T04:24:05.346Z,65.78
2023-01-02T04:30:08.376Z,65.85
2023-01-02T04:32:42.439Z,65.95
2023-01-02T04:35:13.515Z,66.80
2023-01-02T04:37:44.494Z,66.38
2023-01-02T04:40:38.010Z,62.10
2023-01-02T04:43:14.594Z,64.68
2023-01-02T04:45:41.945Z,63.90
2023-01-02T04:48:11.170Z,65.63
2023-01-02T04:50:40.864Z,63.85
2023-01-02T04:53:10.721Z,62.10
2023-01-02T04:55:39.055Z,65.43
2023-01-02T04:58:07.433Z,60.63
2023-01-02T05:00:34.936Z,62.65
2023-01-02T05:03:03.775Z,60.25
2023-01-02T05:05:31.996Z,62.53
2023-01-02T05:07:59.702Z,60.50
2023-01-02T05:10:29.331Z,58.60
2023-01-02T05:13:03.661Z,61.78
2023-01-02T05:15:31.224Z,59.25
2023-01-02T05:17:58.776Z,60.05
2023-01-02T05:20:26.113Z,60.03
2023-01-02T05:23:12.122Z,59.75
2023-01-02T05:25:39.640Z,57.28
2023-01-02T05:28:07.115Z,59.10
2023-01-02T05:30:34.804Z,56.40
2023-01-02T05:33:02.122Z,56.25
2023-01-02T05:35:32.889Z,56.45
2023-01-02T05:38:01.592Z,56.33
2023-01-02T05:40:30.861Z,56.15
2023-01-02T05:42:59.181Z,57.90
2023-01-02T05:45:27.018Z,57.22
2023-01-02T05:47:54.316Z,56.17
2023-01-02T05:50:56.264Z,56.60
2023-01-02T05:53:24.037Z,56.90
2023-01-02T05:55:51.345Z,54.58
2023-01-02T05:58:18.693Z,54.58
2023-01-02T06:00:53.462Z,56.53
2023-01-02T06:03:21.123Z,56.35
2023-01-02T06:05:48.407Z,57.05
2023-01-02T06:08:18.009Z,57.45
2023-01-02T06:10:52.222Z,59.38
2023-01-02T06:13:20.913Z,59.17
2023-01-02T06:15:48.189Z,60.45
2023-01-02T06:18:15.470Z,61.17
2023-01-02T06:20:42.812Z,60.85
2023-01-02T06:23:10.231Z,62.08
2023-01-02T06:25:37.686Z,58.75
2023-01-02T06:28:05.513Z,58.78
2023-01-02T06:30:32.856Z,58.97
2023-01-02T06:33:03.494Z,61.70
2023-01-02T06:35:30.775Z,62.00
2023-01-02T06:37:59.635Z,63.42
2023-01-02T06:40:27.042Z,65.35
2023-01-02T06:42:59.754Z,67.00
2023-01-02T06:45:27.755Z,66.20
2023-01-02T06:48:02.666Z,67.40
2023-01-02T06:50:34.963Z,67.50
2023-01-02T06:53:02.791Z,67.65
2023-01-02T06:55:30.315Z,67.68
2023-01-02T06:57:57.732Z,70.38
2023-01-02T07:00:25.124Z,66.47
2023-01-02T07:02:52.559Z,67.72
2023-01-02T07:05:24.591Z,66.90
2023-01-02T07:07:52.109Z,68.70
2023-01-02T07:10:19.638Z,67.90
2023-01-02T07:12:46.910Z,68.60
2023-01-02T07:15:14.216Z,68.15
2023-01-02T07:17:43.500Z,67.70
2023-01-02T07:20:11.408Z,68.40
2023-01-02T07:22:40.163Z,65.22
2023-01-02T07:25:07.985Z,65.88
2023-01-02T07:27:35.280Z,66.60
2023-01-02T07:30:02.542Z,68.18
2023-01-02T07:32:31.192Z,65.15
2023-01-02T07:35:00.839Z,67.93
2023-01-02T07:37:28.116Z,65.15
2023-01-02T07:39:56.538Z,61.80
2023-01-02T07:42:23.830Z,59.53
2023-01-02T07:44:51.241Z,56.38
2023-01-02T07:47:18.595Z,57.15
2023-01-02T07:49:46.348Z,59.83
2023-01-02T07:52:13.625Z,58.13
2023-01-02T07:54:41.024Z,58.85
2023-01-02T07:57:08.304Z,58.55
2023-01-02T07:59:35.639Z,57.45
2023-01-02T08:02:03.103Z,57.60
2023-01-02T08:04:32.610Z,57.13
2023-01-02T08:07:00.049Z,58.08
2023-01-02T08:09:27.341Z,56.15
2023-01-02T08:11:54.599Z,56.83
2023-01-02T08:14:24.345Z,55.03
2023-01-02T08:16:51.674Z,55.45
2023-01-02T08:19:21.197Z,54.28
2023-01-02T08:21:48.535Z,53.25
2023-01-02T08:24:15.843Z,54.20
2023-01-02T08:26:43.201Z,51.00
2023-01-02T08:29:26.248Z,52.70
2023-01-02T08:31:53.793Z,53.95
2023-01-02T08:34:21.091Z,51.83
2023-01-02T08:36:48.399Z,48.65
2023-01-02T08:39:18.362Z,51.75
2023-01-02T08:41:45.634Z,49.97
2023-01-02T08:44:12.994Z,58.03
2023-01-02T08:46:43.282Z,55.90
2023-01-02T08:49:12.244Z,56.03
2023-01-02T08:51:39.640Z,58.08
2023-01-02T08:54:07.020Z,54.35
2023-01-02T08:56:35.348Z,54.85
2023-01-02T08:59:06.052Z,56.08
2023-01-02T09:01:34.354Z,53.80
2023-01-02T09:04:11.226Z,55.20
2023-01-02T09:06:41.721Z,54.75
2023-01-02T09:09:12.351Z,53.60
2023-01-02T09:12:05.508Z,54.20
2023-01-02T09:14:35.319Z,54.30
2023-01-02T09:17:04.747Z,54.05
2023-01-02T09:19:32.122Z,52.55
2023-01-02T09:22:02.411Z,52.13
2023-01-02T09:24:29.695Z,51.00
2023-01-02T09:26:56.933Z,51.80
2023-01-02T09:29:24.393Z,53.25
2023-01-02T09:34:33.002Z,54.88
2023-01-02T09:37:00.301Z,55.72
2023-01-02T09:39:32.477Z,54.65
2023-01-02T09:42:01.736Z,53.47
2023-01-02T09:44:35.049Z,53.72
2023-01-02T09:47:30.708Z,54.45
2023-01-02T09:50:05.954Z,52.35
2023-01-02T09:52:38.346Z,52.63
2023-01-02T09:55:19.655Z,53.60
2023-01-02T09:58:14.322Z,50.78
2023-01-02T10:00:47.599Z,51.05
2023-01-02T10:03:45.859Z,51.50
2023-01-02T10:06:35.084Z,51.40
2023-01-02T10:09:12.283Z,51.08
2023-01-02T10:11:55.305Z,55.58
2023-01-02T10:14:44.263Z,56.17
2023-01-02T10:17:19.424Z,56.17
2023-01-02T10:20:03.152Z,54.92
2023-01-02T10:23:03.311Z,55.45
2023-01-02T10:25:39.561Z,54.47
2023-01-02T10:30:46.186Z,54.65
2023-01-02T10:33:49.150Z,54.97
2023-01-02T10:36:52.271Z,55.05
2023-01-02T10:39:22.239Z,51.28
2023-01-02T10:42:24.509Z,53.17
2023-01-02T10:44:52.460Z,53.20
2023-01-02T10:47:22.713Z,52.28
2023-01-02T10:49:56.066Z,53.47
2023-01-02T10:52:46.206Z,53.95
2023-01-02T10:55:51.337Z,49.90
2023-01-02T10:58:27.252Z,51.88
2023-01-02T11:01:06.834Z,53.58
2023-01-02T11:03:34.428Z,53.92
2023-01-02T11:06:26.990Z,51.78
2023-01-02T11:08:58.132Z,51.72
2023-01-02T11:11:27.154Z,52.75
2023-01-02T11:13:56.536Z,52.17
2023-01-02T11:16:26.640Z,52.65
2023-01-02T11:18:59.667Z,52.47
2023-01-02T11:21:36.620Z,51.08
2023-01-02T11:24:12.400Z,52.08
2023-01-02T11:26:43.987Z,50.35
2023-01-02T11:29:16.457Z,50.22
2023-01-02T11:31:46.467Z,50.83
2023-01-02T11:34:25.086Z,50.83
2023-01-02T11:37:13.152Z,50.28
2023-01-02T11:39:44.535Z,48.95
2023-01-02T11:42:38.316Z,52.03
2023-01-02T11:45:32.516Z,50.65
2023-01-02T11:48:05.839Z,50.20
2023-01-02T11:50:38.368Z,48.63
2023-01-02T11:53:17.298Z,50.95
2023-01-02T11:55:54.839Z,48.33
2023-01-02T11:58:33.827Z,50.10
2023-01-02T12:01:18.749Z,48.35
2023-01-02T12:03:46.371Z,46.53
2023-01-02T12:06:23.476Z,45.58
2023-01-02T12:09:03.104Z,48.20
2023-01-02T12:11:53.197Z,49.88
2023-01-02T12:14:24.685Z,48.45
2023-01-02T12:17:24.782Z,46.58
2023-01-02T12:20:19.757Z,48.15
2023-01-02T12:23:20.477Z,47.80
2023-01-02T12:26:20.554Z,47.17
2023-01-02T12:29:46.656Z,47.13
2023-01-02T12:32:26.572Z,47.00
2023-01-02T12:35:19.842Z,46.92
2023-01-02T12:38:02.132Z,46.90
2023-01-02T12:40:35.057Z,47.50
2023-01-02T12:43:20.013Z,49.30
2023-01-02T12:45:53.584Z,46.65
2023-01-02T12:48:32.975Z,48.53
2023-01-02T12:51:26.947Z,49.38
2023-01-02T12:54:19.512Z,46.75
2023-01-02T12:57:09.524Z,46.67
2023-01-02T13:00:11.464Z,48.00
2023-01-02T13:03:00.141Z,45.95
2023-01-02T13:05:35.265Z,47.45
2023-01-02T13:08:14.185Z,46.47
2023-01-02T13:10:41.985Z,47.65
2023-01-02T13:13:11.656Z,47.53
2023-01-02T13:15:44.668Z,45.88
2023-01-02T13:18:31.438Z,45.75
2023-01-02T13:23:40.658Z,46.05
2023-01-02T13:26:16.505Z,47.25
2023-01-02T13:28:54.289Z,45.67
2023-01-02T13:31:45.883Z,47.35
2023-01-02T13:34:32.880Z,46.28
2023-01-02T13:37:08.693Z,48.33
2023-01-02T14:02:22.479Z,45.08
2023-01-02T14:04:50.075Z,47.78
2023-01-02T14:07:26.390Z,47.92
2023-01-02T14:13:05.721Z,46.58
2023-01-02T14:31:54.356Z,46.05
2023-01-02T14:34:24.453Z,46.28
2023-01-02T14:36:53.743Z,48.63
2023-01-02T14:39:26.871Z,47.05
2023-01-02T14:42:31.079Z,46.30
2023-01-02T14:45:04.355Z,44.88
2023-01-02T14:47:42.464Z,43.78
2023-01-02T14:50:22.539Z,45.80
2023-01-02T14:53:03.988Z,44.53
2023-01-02T14:55:41.936Z,45.00
2023-01-02T14:58:19.314Z,43.95
2023-01-02T15:00:48.920Z,45.15
2023-01-02T15:03:39.290Z,47.08
2023-01-02T15:06:13.484Z,42.25
2023-01-02T15:08:49.145Z,45.28
2023-01-02T15:11:43.539Z,42.45
2023-01-02T15:14:23.649Z,44.33
2023-01-02T15:16:56.431Z,43.58
2023-01-02T15:19:28.015Z,48.35
2023-01-02T15:21:58.101Z,47.13
2023-01-02T15:24:27.789Z,44.20
2023-01-02T15:26:55.105Z,45.35
2023-01-02T15:29:27.951Z,43.92
2023-01-02T15:32:00.177Z,41.88
2023-01-02T15:34:32.947Z,44.17
2023-01-02T15:37:07.670Z,42.42
2023-01-02T15:39:38.141Z,42.97
2023-01-02T15:42:26.352Z,44.85
2023-01-02T15:45:13.500Z,46.65
2023-01-02T15:47:50.861Z,48.15
2023-01-02T15:50:32.348Z,45.17
2023-01-02T15:53:09.092Z,43.53
2023-01-02T15:55:39.330Z,47.10
2023-01-02T15:58:15.428Z,45.78
2023-01-02T16:00:46.346Z,43.35
2023-01-02T16:04:03.070Z,39.78
2023-01-02T16:06:34.154Z,37.17
2023-01-02T16:09:05.280Z,39.00
2023-01-02T16:11:36.332Z,37.78
2023-01-02T16:14:19.264Z,38.88
2023-01-02T16:16:49.805Z,36.08
2023-01-02T16:19:40.517Z,36.38
2023-01-02T16:22:19.685Z,37.33
2023-01-02T16:25:06.380Z,42.72
2023-01-02T16:27:47.086Z,39.83
2023-01-02T16:30:28.497Z,41.03
2023-01-02T16:32:56.253Z,50.03
2023-01-02T16:35:29.724Z,47.13
2023-01-02T16:37:59.061Z,37.65
2023-01-02T16:41:00.717Z,37.83
2023-01-02T16:43:13.902Z,38.47
2023-01-02T16:45:41.558Z,38.70
2023-01-02T16:48:15.389Z,38.38
2023-01-02T16:50:45.739Z,40.50
2023-01-02T16:53:31.450Z,49.15
2023-01-02T16:56:00.766Z,40.80
2023-01-02T16:58:29.211Z,39.90
2023-01-02T17:00:56.963Z,41.35
2023-01-02T17:03:26.290Z,55.10
2023-01-02T17:06:01.346Z,42.40
2023-01-02T17:08:34.567Z,38.20
2023-01-02T17:11:02.209Z,38.03
2023-01-02T17:13:30.391Z,37.92
2023-01-02T17:16:04.148Z,39.50
2023-01-02T17:18:31.510Z,39.20
2023-01-02T17:20:58.768Z,37.47
2023-01-02T17:23:26.076Z,36.75
2023-01-02T17:25:53.408Z,38.85
2023-01-02T17:28:20.683Z,38.05
2023-01-02T17:30:49.590Z,38.22
2023-01-02T17:33:17.829Z,37.47
2023-01-02T17:35:46.677Z,37.70
2023-01-02T17:38:14.320Z,38.05
2023-01-02T17:40:41.725Z,37.35
2023-01-02T17:43:09.397Z,38.67
2023-01-02T17:45:37.025Z,38.47
2023-01-02T17:48:11.061Z,36.95
2023-01-02T17:50:40.414Z,39.35
2023-01-02T17:53:08.169Z,39.08
2023-01-02T17:55:35.755Z,39.38
2023-01-02T17:58:03.931Z,39.38
2023-01-02T18:00:31.253Z,40.85
2023-01-02T18:02:58.639Z,35.88
2023-01-02T18:05:28.099Z,38.67
2023-01-02T18:07:55.454Z,41.17
2023-01-02T18:10:27.680Z,42.53
2023-01-02T18:13:00.101Z,47.67
2023-01-02T18:15:29.634Z,49.22
2023-01-02T18:18:01.151Z,59.40
2023-01-02T18:20:28.411Z,52.92
2023-01-02T18:22:57.969Z,43.92
2023-01-02T18:25:28.357Z,38.50
2023-01-02T18:28:02.939Z,40.22
2023-01-02T18:30:30.267Z,37.85
2023-01-02T18:33:06.868Z,40.08
2023-01-02T18:38:39.634Z,36.90
2023-01-02T18:41:22.490Z,39.42
2023-01-02T18:43:53.976Z,38.50
2023-01-02T18:47:02.084Z,38.90
2023-01-02T18:49:28.790Z,39.15
2023-01-02T18:52:11.523Z,38.80
2023-01-02T18:54:45.717Z,42.15
2023-01-02T18:57:19.035Z,43.25
2023-01-02T18:59:47.564Z,43.30
2023-01-02T19:02:25.616Z,43.35
2023-01-02T19:04:55.088Z,42.15
2023-01-02T19:07:31.823Z,44.15
2023-01-02T19:10:08.426Z,42.35
2023-01-02T19:13:07.681Z,44.17
2023-01-02T19:15:37.838Z,43.15
2023-01-02T19:18:35.303Z,41.03
2023-01-02T19:21:22.241Z,43.72
2023-01-02T19:26:38.063Z,44.60
2023-01-02T19:29:09.634Z,44.40
2023-01-02T19:32:16.267Z,43.60
2023-01-02T19:34:50.394Z,43.58
2023-01-02T19:37:41.425Z,44.20
2023-01-02T19:40:20.123Z,42.58
2023-01-02T19:42:49.522Z,43.25
2023-01-02T19:45:19.715Z,44.65
2023-01-02T19:47:49.220Z,42.05
2023-01-02T19:50:20.153Z,42.10
2023-01-02T19:52:47.547Z,43.65
2023-01-02T19:55:17.712Z,42.58
2023-01-02T19:57:46.148Z,46.17
2023-01-02T20:00:15.515Z,43.42
2023-01-02T20:02:45.818Z,43.60
2023-01-02T20:05:20.874Z,42.15
2023-01-02T20:07:49.344Z,43.97
2023-01-02T20:10:16.835Z,46.22
2023-01-02T20:12:44.819Z,43.63
2023-01-02T20:15:20.940Z,42.70
2023-01-02T20:17:48.411Z,43.88
2023-01-02T20:20:19.148Z,45.08
2023-01-02T20:22:47.824Z,44.53
2023-01-02T20:25:15.956Z,45.42
2023-01-02T20:27:43.491Z,46.03
2023-01-02T20:30:11.910Z,47.70
2023-01-02T20:32:39.245Z,45.45
2023-01-02T20:35:06.836Z,48.38
2023-01-02T20:37:34.268Z,48.17
2023-01-02T20:40:01.598Z,49.15
2023-01-02T20:42:29.138Z,46.17
2023-01-02T20:44:56.482Z,45.28
2023-01-02T20:47:23.832Z,44.22
2023-01-02T20:49:51.111Z,44.35
2023-01-02T20:52:19.163Z,45.08
2023-01-02T20:54:46.506Z,45.08
2023-01-02T20:57:13.847Z,45.13
2023-01-02T20:59:41.237Z,45.50
2023-01-02T21:02:08.601Z,46.28
2023-01-02T21:04:37.315Z,45.25
2023-01-02T21:07:05.802Z,44.50
2023-01-02T21:09:33.489Z,43.67
2023-01-02T21:12:00.903Z,45.38
2023-01-02T21:14:31.146Z,44.30
2023-01-02T21:17:01.185Z,43.63
2023-01-02T21:19:28.517Z,43.65
2023-01-02T21:21:55.746Z,42.15
2023-01-02T21:24:23.118Z,44.80
2023-01-02T21:26:50.424Z,42.00
2023-01-02T21:29:17.658Z,44.03
2023-01-02T21:31:44.897Z,41.33
2023-01-02T21:34:13.676Z,45.15
2023-01-02T21:36:41.031Z,44.78
2023-01-02T21:39:09.613Z,45.40
2023-01-02T21:41:55.721Z,45.08
2023-01-02T21:44:23.015Z,45.90
2023-01-02T21:46:50.477Z,46.78
2023-01-02T21:49:19.379Z,47.50
2023-01-02T21:51:46.865Z,46.28
2023-01-02T21:54:14.451Z,44.67
2023-01-02T21:56:43.686Z,44.92
2023-01-02T21:59:14.103Z,46.22
2023-01-02T22:01:41.962Z,44.70
2023-01-02T22:04:12.639Z,47.40
2023-01-02T22:07:04.268Z,45.97
2023-01-02T22:09:27.943Z,46.80
2023-01-02T22:11:57.504Z,45.22
2023-01-02T22:14:53.206Z,44.75
2023-01-02T22:17:20.596Z,45.83
2023-01-02T22:19:47.930Z,47.33
2023-01-02T22:22:40.905Z,45.65
2023-01-02T22:25:09.172Z,48.08
2023-01-02T22:27:38.975Z,45.47
2023-01-02T22:30:31.547Z,44.05
2023-01-02T22:32:56.200Z,43.35
2023-01-02T22:35:23.859Z,45.50
2023-01-02T22:37:51.278Z,44.47
2023-01-02T22:40:18.643Z,45.20
2023-01-02T22:43:10.482Z,44.90
2023-01-02T22:45:46.998Z,41.17
2023-01-02T23:02:17.446Z,44.53
2023-01-02T23:04:45.249Z,45.15
2023-01-02T23:07:24.330Z,47.80
2023-01-02T23:09:54.757Z,46.17
2023-01-02T23:12:22.157Z,46.75
2023-01-02T23:16:31.926Z,46.67
2023-01-02T23:19:25.127Z,46.67
2023-01-02T23:21:56.877Z,49.38
2023-01-02T23:24:36.160Z,47.72
2023-01-02T23:27:10.371Z,48.15
2023-01-02T23:29:41.122Z,48.13
2023-01-02T23:32:12.726Z,46.05
2023-01-02T23:34:41.605Z,48.20
2023-01-02T23:37:09.385Z,48.80
2023-01-02T23:39:37.202Z,47.13
2023-01-02T23:42:04.829Z,46.28
2023-01-02T23:44:32.104Z,47.95
2023-01-02T23:47:03.990Z,47.85
2023-01-02T23:49:36.791Z,46.42
2023-01-02T23:52:05.004Z,47.35
2023-01-02T23:54:32.451Z,48.15
2023-01-02T23:57:00.021Z,47.80
2023-01-02T23:59:29.588Z,47.90
